sensor_id;sensor_type;location;lat;lon;timestamp;P1;durP1;ratioP1;P2;durP2;ratioP2
24030;SDS011;12240;51.142;22.486;2022-11-20T00:01:32;59.58;;;21.52;;
24030;SDS011;12240;51.142;22.486;2022-11-20T00:04:00;69.93;;;21.20;;
24030;SDS011;12240;51.142;22.486;2022-11-20T00:06:29;65.00;;;20.67;;
24030;SDS011;12240;51.142;22.486;2022-11-20T00:08:58;58.92;;;20.23;;
24030;SDS011;12240;51.142;22.486;2022-11-20T00:11:27;56.08;;;19.10;;
24030;SDS011;12240;51.142;22.486;2022-11-20T00:13:58;57.92;;;18.17;;
24030;SDS011;12240;51.142;22.486;2022-11-20T00:18:58;56.00;;;17.33;;
24030;SDS011;12240;51.142;22.486;2022-11-20T00:21:28;56.70;;;18.58;;
24030;SDS011;12240;51.142;22.486;2022-11-20T00:23:57;53.42;;;17.45;;
24030;SDS011;12240;51.142;22.486;2022-11-20T00:26:26;50.35;;;18.15;;
24030;SDS011;12240;51.142;22.486;2022-11-20T00:28:56;48.88;;;17.63;;
24030;SDS011;12240;51.142;22.486;2022-11-20T00:31:27;55.95;;;20.40;;
24030;SDS011;12240;51.142;22.486;2022-11-20T00:33:57;73.80;;;20.80;;
24030;SDS011;12240;51.142;22.486;2022-11-20T00:36:26;49.20;;;18.50;;
24030;SDS011;12240;51.142;22.486;2022-11-20T00:38:56;60.08;;;19.65;;
24030;SDS011;12240;51.142;22.486;2022-11-20T00:41:26;57.33;;;17.93;;
24030;SDS011;12240;51.142;22.486;2022-11-20T00:43:56;52.17;;;18.73;;
24030;SDS011;12240;51.142;22.486;2022-11-20T00:46:25;61.60;;;21.10;;
24030;SDS011;12240;51.142;22.486;2022-11-20T00:48:54;38.72;;;16.27;;
24030;SDS011;12240;51.142;22.486;2022-11-20T00:51:24;52.28;;;17.88;;
24030;SDS011;12240;51.142;22.486;2022-11-20T00:53:56;55.10;;;17.45;;
24030;SDS011;12240;51.142;22.486;2022-11-20T00:58:55;45.30;;;15.93;;
24030;SDS011;12240;51.142;22.486;2022-11-20T01:01:28;48.30;;;16.75;;
24030;SDS011;12240;51.142;22.486;2022-11-20T01:03:58;51.83;;;18.08;;
24030;SDS011;12240;51.142;22.486;2022-11-20T01:06:28;55.85;;;18.67;;
24030;SDS011;12240;51.142;22.486;2022-11-20T01:09:00;46.45;;;14.43;;
24030;SDS011;12240;51.142;22.486;2022-11-20T01:11:34;47.95;;;15.75;;
24030;SDS011;12240;51.142;22.486;2022-11-20T01:14:07;40.15;;;13.93;;
24030;SDS011;12240;51.142;22.486;2022-11-20T01:16:42;36.13;;;14.18;;
24030;SDS011;12240;51.142;22.486;2022-11-20T01:19:14;31.05;;;13.32;;
24030;SDS011;12240;51.142;22.486;2022-11-20T01:21:45;41.17;;;14.88;;
24030;SDS011;12240;51.142;22.486;2022-11-20T01:24:17;47.60;;;15.57;;
24030;SDS011;12240;51.142;22.486;2022-11-20T01:26:48;35.35;;;14.23;;
24030;SDS011;12240;51.142;22.486;2022-11-20T01:29:22;42.92;;;14.10;;
24030;SDS011;12240;51.142;22.486;2022-11-20T01:31:51;39.78;;;14.50;;
24030;SDS011;12240;51.142;22.486;2022-11-20T01:34:20;42.58;;;14.50;;
24030;SDS011;12240;51.142;22.486;2022-11-20T01:36:49;38.53;;;12.50;;
24030;SDS011;12240;51.142;22.486;2022-11-20T01:39:20;34.92;;;13.23;;
24030;SDS011;12240;51.142;22.486;2022-11-20T01:41:51;37.50;;;12.45;;
24030;SDS011;12240;51.142;22.486;2022-11-20T01:44:43;38.13;;;13.48;;
24030;SDS011;12240;51.142;22.486;2022-11-20T01:47:27;30.30;;;11.93;;
24030;SDS011;12240;51.142;22.486;2022-11-20T01:50:23;28.75;;;9.75;;
24030;SDS011;12240;51.142;22.486;2022-11-20T01:52:57;28.00;;;11.25;;
24030;SDS011;12240;51.142;22.486;2022-11-20T01:55:33;30.60;;;12.40;;
24030;SDS011;12240;51.142;22.486;2022-11-20T01:58:06;18.60;;;6.65;;
24030;SDS011;12240;51.142;22.486;2022-11-20T02:00:35;27.00;;;9.75;;
24030;SDS011;12240;51.142;22.486;2022-11-20T02:03:04;23.88;;;9.10;;
24030;SDS011;12240;51.142;22.486;2022-11-20T02:05:38;33.17;;;11.77;;
24030;SDS011;12240;51.142;22.486;2022-11-20T02:08:51;24.15;;;9.25;;
24030;SDS011;12240;51.142;22.486;2022-11-20T02:11:20;30.20;;;10.50;;
24030;SDS011;12240;51.142;22.486;2022-11-20T02:13:48;22.92;;;9.57;;
24030;SDS011;12240;51.142;22.486;2022-11-20T02:16:21;25.23;;;9.75;;
24030;SDS011;12240;51.142;22.486;2022-11-20T02:19:06;28.10;;;10.70;;
24030;SDS011;12240;51.142;22.486;2022-11-20T02:27:15;24.38;;;9.68;;
24030;SDS011;12240;51.142;22.486;2022-11-20T02:29:45;36.65;;;11.93;;
24030;SDS011;12240;51.142;22.486;2022-11-20T02:32:27;30.30;;;11.65;;
24030;SDS011;12240;51.142;22.486;2022-11-20T02:37:53;38.63;;;13.57;;
24030;SDS011;12240;51.142;22.486;2022-11-20T02:40:24;34.97;;;14.02;;
24030;SDS011;12240;51.142;22.486;2022-11-20T02:42:52;25.90;;;10.50;;
24030;SDS011;12240;51.142;22.486;2022-11-20T02:45:23;27.38;;;10.48;;
24030;SDS011;12240;51.142;22.486;2022-11-20T02:47:51;34.20;;;13.05;;
24030;SDS011;12240;51.142;22.486;2022-11-20T02:50:20;34.90;;;13.45;;
24030;SDS011;12240;51.142;22.486;2022-11-20T02:52:48;22.60;;;8.25;;
24030;SDS011;12240;51.142;22.486;2022-11-20T02:55:16;26.52;;;10.80;;
24030;SDS011;12240;51.142;22.486;2022-11-20T02:57:44;39.47;;;13.68;;
24030;SDS011;12240;51.142;22.486;2022-11-20T03:00:12;36.42;;;13.48;;
24030;SDS011;12240;51.142;22.486;2022-11-20T03:02:42;38.85;;;13.63;;
24030;SDS011;12240;51.142;22.486;2022-11-20T03:05:10;35.97;;;14.20;;
24030;SDS011;12240;51.142;22.486;2022-11-20T03:07:38;34.58;;;13.45;;
24030;SDS011;12240;51.142;22.486;2022-11-20T03:10:06;26.27;;;9.25;;
24030;SDS011;12240;51.142;22.486;2022-11-20T03:12:34;39.03;;;13.02;;
24030;SDS011;12240;51.142;22.486;2022-11-20T03:15:03;37.97;;;14.13;;
24030;SDS011;12240;51.142;22.486;2022-11-20T03:17:31;36.58;;;13.65;;
24030;SDS011;12240;51.142;22.486;2022-11-20T03:19:59;29.23;;;11.85;;
24030;SDS011;12240;51.142;22.486;2022-11-20T03:22:28;33.53;;;13.20;;
24030;SDS011;12240;51.142;22.486;2022-11-20T03:24:57;32.25;;;12.15;;
24030;SDS011;12240;51.142;22.486;2022-11-20T03:27:25;35.25;;;12.43;;
24030;SDS011;12240;51.142;22.486;2022-11-20T03:29:53;36.72;;;13.20;;
24030;SDS011;12240;51.142;22.486;2022-11-20T03:32:21;37.08;;;13.15;;
24030;SDS011;12240;51.142;22.486;2022-11-20T03:34:49;32.80;;;12.98;;
24030;SDS011;12240;51.142;22.486;2022-11-20T03:37:17;28.17;;;10.07;;
24030;SDS011;12240;51.142;22.486;2022-11-20T03:39:46;31.63;;;11.75;;
24030;SDS011;12240;51.142;22.486;2022-11-20T03:42:13;36.08;;;13.93;;
24030;SDS011;12240;51.142;22.486;2022-11-20T03:45:00;34.08;;;12.43;;
24030;SDS011;12240;51.142;22.486;2022-11-20T03:47:28;35.25;;;12.55;;
24030;SDS011;12240;51.142;22.486;2022-11-20T03:49:56;26.15;;;9.30;;
24030;SDS011;12240;51.142;22.486;2022-11-20T03:52:24;32.25;;;11.80;;
24030;SDS011;12240;51.142;22.486;2022-11-20T03:54:51;35.88;;;13.63;;
24030;SDS011;12240;51.142;22.486;2022-11-20T03:57:20;36.33;;;13.45;;
24030;SDS011;12240;51.142;22.486;2022-11-20T03:59:48;35.65;;;13.60;;
24030;SDS011;12240;51.142;22.486;2022-11-20T04:02:17;33.13;;;12.20;;
24030;SDS011;12240;51.142;22.486;2022-11-20T04:04:45;34.50;;;12.57;;
24030;SDS011;12240;51.142;22.486;2022-11-20T04:07:13;36.60;;;14.10;;
24030;SDS011;12240;51.142;22.486;2022-11-20T04:09:41;42.35;;;14.00;;
24030;SDS011;12240;51.142;22.486;2022-11-20T04:12:09;35.50;;;12.18;;
24030;SDS011;12240;51.142;22.486;2022-11-20T04:14:37;32.17;;;11.63;;
24030;SDS011;12240;51.142;22.486;2022-11-20T04:17:05;33.47;;;12.30;;
24030;SDS011;12240;51.142;22.486;2022-11-20T04:19:33;39.28;;;13.82;;
24030;SDS011;12240;51.142;22.486;2022-11-20T04:22:01;35.42;;;13.23;;
24030;SDS011;12240;51.142;22.486;2022-11-20T04:24:29;31.75;;;11.90;;
24030;SDS011;12240;51.142;22.486;2022-11-20T04:26:57;34.33;;;13.43;;
24030;SDS011;12240;51.142;22.486;2022-11-20T04:29:25;33.72;;;13.40;;
24030;SDS011;12240;51.142;22.486;2022-11-20T04:31:53;37.33;;;13.75;;
24030;SDS011;12240;51.142;22.486;2022-11-20T04:34:21;36.83;;;13.48;;
24030;SDS011;12240;51.142;22.486;2022-11-20T04:36:49;39.67;;;14.48;;
24030;SDS011;12240;51.142;22.486;2022-11-20T04:39:17;36.33;;;13.50;;
24030;SDS011;12240;51.142;22.486;2022-11-20T04:41:46;40.97;;;14.73;;
24030;SDS011;12240;51.142;22.486;2022-11-20T04:44:14;31.50;;;12.50;;
24030;SDS011;12240;51.142;22.486;2022-11-20T04:46:42;32.92;;;12.82;;
24030;SDS011;12240;51.142;22.486;2022-11-20T04:49:10;37.10;;;13.07;;
24030;SDS011;12240;51.142;22.486;2022-11-20T04:51:39;39.17;;;13.50;;
24030;SDS011;12240;51.142;22.486;2022-11-20T04:54:07;32.17;;;12.88;;
24030;SDS011;12240;51.142;22.486;2022-11-20T04:56:37;35.15;;;13.63;;
24030;SDS011;12240;51.142;22.486;2022-11-20T04:59:05;30.52;;;12.38;;
24030;SDS011;12240;51.142;22.486;2022-11-20T05:01:33;31.92;;;13.32;;
24030;SDS011;12240;51.142;22.486;2022-11-20T05:04:01;35.55;;;13.15;;
24030;SDS011;12240;51.142;22.486;2022-11-20T05:06:29;35.70;;;12.60;;
24030;SDS011;12240;51.142;22.486;2022-11-20T05:08:57;37.67;;;14.05;;
24030;SDS011;12240;51.142;22.486;2022-11-20T05:11:25;37.25;;;14.07;;
24030;SDS011;12240;51.142;22.486;2022-11-20T05:13:58;36.28;;;13.95;;
24030;SDS011;12240;51.142;22.486;2022-11-20T05:16:26;34.30;;;12.53;;
24030;SDS011;12240;51.142;22.486;2022-11-20T05:18:54;38.00;;;13.18;;
24030;SDS011;12240;51.142;22.486;2022-11-20T05:21:23;34.60;;;13.05;;
24030;SDS011;12240;51.142;22.486;2022-11-20T05:23:51;35.90;;;13.02;;
24030;SDS011;12240;51.142;22.486;2022-11-20T05:26:20;34.72;;;14.23;;
24030;SDS011;12240;51.142;22.486;2022-11-20T05:28:49;42.25;;;14.40;;
24030;SDS011;12240;51.142;22.486;2022-11-20T05:31:19;46.00;;;16.38;;
24030;SDS011;12240;51.142;22.486;2022-11-20T05:33:54;45.17;;;16.38;;
24030;SDS011;12240;51.142;22.486;2022-11-20T05:36:24;46.15;;;18.38;;
24030;SDS011;12240;51.142;22.486;2022-11-20T05:38:52;37.47;;;14.50;;
24030;SDS011;12240;51.142;22.486;2022-11-20T05:41:27;33.33;;;13.25;;
24030;SDS011;12240;51.142;22.486;2022-11-20T05:43:56;37.88;;;13.98;;
24030;SDS011;12240;51.142;22.486;2022-11-20T05:46:25;33.20;;;12.07;;
24030;SDS011;12240;51.142;22.486;2022-11-20T05:48:56;30.70;;;12.48;;
24030;SDS011;12240;51.142;22.486;2022-11-20T05:51:25;34.20;;;12.52;;
24030;SDS011;12240;51.142;22.486;2022-11-20T05:53:56;33.53;;;12.75;;
24030;SDS011;12240;51.142;22.486;2022-11-20T05:56:25;40.08;;;14.13;;
24030;SDS011;12240;51.142;22.486;2022-11-20T05:58:53;38.63;;;14.43;;
24030;SDS011;12240;51.142;22.486;2022-11-20T06:01:23;40.17;;;13.52;;
24030;SDS011;12240;51.142;22.486;2022-11-20T06:03:54;37.38;;;12.70;;
24030;SDS011;12240;51.142;22.486;2022-11-20T06:06:23;36.78;;;13.82;;
24030;SDS011;12240;51.142;22.486;2022-11-20T06:08:53;38.92;;;13.98;;
24030;SDS011;12240;51.142;22.486;2022-11-20T06:11:22;36.67;;;13.65;;
24030;SDS011;12240;51.142;22.486;2022-11-20T06:13:50;32.85;;;13.02;;
24030;SDS011;12240;51.142;22.486;2022-11-20T06:16:19;34.90;;;12.05;;
24030;SDS011;12240;51.142;22.486;2022-11-20T06:18:47;28.80;;;11.05;;
24030;SDS011;12240;51.142;22.486;2022-11-20T06:21:19;39.67;;;14.30;;
24030;SDS011;12240;51.142;22.486;2022-11-20T06:23:49;40.05;;;13.38;;
24030;SDS011;12240;51.142;22.486;2022-11-20T06:26:20;40.10;;;14.70;;
24030;SDS011;12240;51.142;22.486;2022-11-20T06:28:51;41.95;;;15.43;;
24030;SDS011;12240;51.142;22.486;2022-11-20T06:31:20;33.83;;;12.13;;
24030;SDS011;12240;51.142;22.486;2022-11-20T06:33:50;48.97;;;15.48;;
24030;SDS011;12240;51.142;22.486;2022-11-20T06:36:20;37.45;;;14.40;;
24030;SDS011;12240;51.142;22.486;2022-11-20T06:38:50;20.08;;;8.68;;
24030;SDS011;12240;51.142;22.486;2022-11-20T06:41:19;42.10;;;13.43;;
24030;SDS011;12240;51.142;22.486;2022-11-20T06:43:48;42.70;;;12.85;;
24030;SDS011;12240;51.142;22.486;2022-11-20T06:46:17;34.78;;;13.63;;
24030;SDS011;12240;51.142;22.486;2022-11-20T06:48:47;40.80;;;13.57;;
24030;SDS011;12240;51.142;22.486;2022-11-20T06:51:16;29.23;;;11.70;;
24030;SDS011;12240;51.142;22.486;2022-11-20T06:53:45;32.17;;;12.75;;
24030;SDS011;12240;51.142;22.486;2022-11-20T06:56:13;35.72;;;11.95;;
24030;SDS011;12240;51.142;22.486;2022-11-20T06:58:41;21.55;;;9.10;;
24030;SDS011;12240;51.142;22.486;2022-11-20T07:01:10;23.10;;;9.55;;
24030;SDS011;12240;51.142;22.486;2022-11-20T07:03:42;24.08;;;10.20;;
24030;SDS011;12240;51.142;22.486;2022-11-20T07:06:11;28.60;;;10.15;;
24030;SDS011;12240;51.142;22.486;2022-11-20T07:08:39;32.22;;;11.40;;
24030;SDS011;12240;51.142;22.486;2022-11-20T07:11:07;29.08;;;10.88;;
24030;SDS011;12240;51.142;22.486;2022-11-20T07:13:35;36.17;;;11.65;;
24030;SDS011;12240;51.142;22.486;2022-11-20T07:16:04;27.88;;;10.45;;
24030;SDS011;12240;51.142;22.486;2022-11-20T07:18:35;27.48;;;8.38;;
24030;SDS011;12240;51.142;22.486;2022-11-20T07:21:07;24.40;;;9.95;;
24030;SDS011;12240;51.142;22.486;2022-11-20T07:23:37;27.52;;;10.07;;
24030;SDS011;12240;51.142;22.486;2022-11-20T07:26:06;27.90;;;10.90;;
24030;SDS011;12240;51.142;22.486;2022-11-20T07:28:36;21.48;;;7.07;;
24030;SDS011;12240;51.142;22.486;2022-11-20T07:31:05;29.40;;;10.63;;
24030;SDS011;12240;51.142;22.486;2022-11-20T07:33:34;33.15;;;9.20;;
24030;SDS011;12240;51.142;22.486;2022-11-20T07:36:02;26.80;;;11.00;;
24030;SDS011;12240;51.142;22.486;2022-11-20T07:38:31;25.27;;;9.32;;
24030;SDS011;12240;51.142;22.486;2022-11-20T07:40:59;24.02;;;9.70;;
24030;SDS011;12240;51.142;22.486;2022-11-20T07:43:30;23.23;;;7.57;;
24030;SDS011;12240;51.142;22.486;2022-11-20T07:46:04;29.48;;;10.38;;
24030;SDS011;12240;51.142;22.486;2022-11-20T07:48:32;23.60;;;8.90;;
24030;SDS011;12240;51.142;22.486;2022-11-20T07:51:02;22.50;;;8.82;;
24030;SDS011;12240;51.142;22.486;2022-11-20T07:53:30;31.50;;;10.15;;
24030;SDS011;12240;51.142;22.486;2022-11-20T07:56:01;29.08;;;9.35;;
24030;SDS011;12240;51.142;22.486;2022-11-20T07:58:31;28.63;;;9.52;;
24030;SDS011;12240;51.142;22.486;2022-11-20T08:01:05;23.55;;;9.25;;
24030;SDS011;12240;51.142;22.486;2022-11-20T08:03:35;29.70;;;10.70;;
24030;SDS011;12240;51.142;22.486;2022-11-20T08:06:06;28.00;;;9.93;;
24030;SDS011;12240;51.142;22.486;2022-11-20T08:08:34;28.88;;;9.88;;
24030;SDS011;12240;51.142;22.486;2022-11-20T08:11:09;29.60;;;8.55;;
24030;SDS011;12240;51.142;22.486;2022-11-20T08:13:56;21.13;;;8.20;;
24030;SDS011;12240;51.142;22.486;2022-11-20T08:16:40;25.35;;;9.05;;
24030;SDS011;12240;51.142;22.486;2022-11-20T08:19:14;24.05;;;9.40;;
24030;SDS011;12240;51.142;22.486;2022-11-20T08:24:13;26.80;;;9.60;;
24030;SDS011;12240;51.142;22.486;2022-11-20T08:26:41;27.20;;;8.95;;
24030;SDS011;12240;51.142;22.486;2022-11-20T08:29:09;22.92;;;9.50;;
24030;SDS011;12240;51.142;22.486;2022-11-20T08:31:37;37.95;;;13.07;;
24030;SDS011;12240;51.142;22.486;2022-11-20T08:34:06;26.70;;;9.20;;
24030;SDS011;12240;51.142;22.486;2022-11-20T08:36:36;31.48;;;11.63;;
24030;SDS011;12240;51.142;22.486;2022-11-20T08:39:04;28.55;;;11.27;;
24030;SDS011;12240;51.142;22.486;2022-11-20T08:41:32;25.30;;;9.90;;
24030;SDS011;12240;51.142;22.486;2022-11-20T08:44:04;26.48;;;10.00;;
24030;SDS011;12240;51.142;22.486;2022-11-20T08:49:06;26.38;;;10.68;;
24030;SDS011;12240;51.142;22.486;2022-11-20T08:51:38;29.10;;;8.63;;
24030;SDS011;12240;51.142;22.486;2022-11-20T08:54:09;29.38;;;10.82;;
24030;SDS011;12240;51.142;22.486;2022-11-20T08:56:37;27.50;;;11.05;;
24030;SDS011;12240;51.142;22.486;2022-11-20T08:59:05;30.08;;;10.00;;
24030;SDS011;12240;51.142;22.486;2022-11-20T09:01:53;27.88;;;9.25;;
24030;SDS011;12240;51.142;22.486;2022-11-20T09:04:22;27.58;;;9.52;;
24030;SDS011;12240;51.142;22.486;2022-11-20T09:06:50;28.77;;;9.90;;
24030;SDS011;12240;51.142;22.486;2022-11-20T09:09:19;30.05;;;10.05;;
24030;SDS011;12240;51.142;22.486;2022-11-20T09:11:48;29.02;;;10.50;;
24030;SDS011;12240;51.142;22.486;2022-11-20T09:14:17;31.70;;;11.45;;
24030;SDS011;12240;51.142;22.486;2022-11-20T09:16:45;30.38;;;10.00;;
24030;SDS011;12240;51.142;22.486;2022-11-20T09:19:14;27.17;;;10.07;;
24030;SDS011;12240;51.142;22.486;2022-11-20T09:22:02;26.30;;;9.18;;
24030;SDS011;12240;51.142;22.486;2022-11-20T09:24:30;24.30;;;8.98;;
24030;SDS011;12240;51.142;22.486;2022-11-20T09:27:04;31.23;;;10.45;;
24030;SDS011;12240;51.142;22.486;2022-11-20T09:29:32;24.25;;;8.52;;
24030;SDS011;12240;51.142;22.486;2022-11-20T09:32:00;27.70;;;8.57;;
24030;SDS011;12240;51.142;22.486;2022-11-20T09:34:28;23.95;;;9.63;;
24030;SDS011;12240;51.142;22.486;2022-11-20T09:36:57;25.55;;;8.95;;
24030;SDS011;12240;51.142;22.486;2022-11-20T09:39:30;31.67;;;10.20;;
24030;SDS011;12240;51.142;22.486;2022-11-20T09:50:37;23.67;;;9.68;;
24030;SDS011;12240;51.142;22.486;2022-11-20T09:53:42;23.83;;;8.80;;
24030;SDS011;12240;51.142;22.486;2022-11-20T09:56:26;22.55;;;8.65;;
24030;SDS011;12240;51.142;22.486;2022-11-20T09:58:57;19.33;;;7.10;;
24030;SDS011;12240;51.142;22.486;2022-11-20T10:01:32;27.45;;;9.70;;
24030;SDS011;12240;51.142;22.486;2022-11-20T10:04:15;27.83;;;10.07;;
24030;SDS011;12240;51.142;22.486;2022-11-20T10:07:07;27.88;;;9.60;;
24030;SDS011;12240;51.142;22.486;2022-11-20T10:10:00;27.00;;;9.20;;
24030;SDS011;12240;51.142;22.486;2022-11-20T10:12:32;26.00;;;10.57;;
24030;SDS011;12240;51.142;22.486;2022-11-20T10:18:14;34.92;;;13.13;;
24030;SDS011;12240;51.142;22.486;2022-11-20T10:24:02;28.33;;;10.40;;
24030;SDS011;12240;51.142;22.486;2022-11-20T10:27:23;25.80;;;10.02;;
24030;SDS011;12240;51.142;22.486;2022-11-20T10:30:39;18.88;;;7.53;;
24030;SDS011;12240;51.142;22.486;2022-11-20T10:33:18;23.98;;;9.48;;
24030;SDS011;12240;51.142;22.486;2022-11-20T10:35:52;30.33;;;9.77;;
24030;SDS011;12240;51.142;22.486;2022-11-20T10:38:44;26.90;;;10.07;;
24030;SDS011;12240;51.142;22.486;2022-11-20T10:41:32;25.10;;;9.57;;
24030;SDS011;12240;51.142;22.486;2022-11-20T10:44:26;27.50;;;9.98;;
24030;SDS011;12240;51.142;22.486;2022-11-20T10:47:21;27.55;;;9.95;;
24030;SDS011;12240;51.142;22.486;2022-11-20T10:49:53;27.15;;;9.13;;
24030;SDS011;12240;51.142;22.486;2022-11-20T10:55:45;38.00;;;12.65;;
24030;SDS011;12240;51.142;22.486;2022-11-20T11:01:41;52.90;;;16.20;;
24030;SDS011;12240;51.142;22.486;2022-11-20T11:04:16;42.40;;;14.30;;
24030;SDS011;12240;51.142;22.486;2022-11-20T11:09:52;24.45;;;8.55;;
24030;SDS011;12240;51.142;22.486;2022-11-20T11:12:24;30.70;;;11.70;;
24030;SDS011;12240;51.142;22.486;2022-11-20T11:14:55;30.13;;;9.52;;
24030;SDS011;12240;51.142;22.486;2022-11-20T11:22:32;24.55;;;8.82;;
24030;SDS011;12240;51.142;22.486;2022-11-20T11:25:31;18.67;;;7.50;;
24030;SDS011;12240;51.142;22.486;2022-11-20T11:30:53;28.42;;;10.35;;
24030;SDS011;12240;51.142;22.486;2022-11-20T11:33:27;23.48;;;9.43;;
24030;SDS011;12240;51.142;22.486;2022-11-20T11:35:58;28.77;;;10.60;;
24030;SDS011;12240;51.142;22.486;2022-11-20T11:38:35;26.25;;;9.80;;
24030;SDS011;12240;51.142;22.486;2022-11-20T11:41:16;29.20;;;10.45;;
24030;SDS011;12240;51.142;22.486;2022-11-20T11:43:52;29.10;;;10.00;;
24030;SDS011;12240;51.142;22.486;2022-11-20T11:46:52;27.58;;;10.52;;
24030;SDS011;12240;51.142;22.486;2022-11-20T11:49:22;33.08;;;11.18;;
24030;SDS011;12240;51.142;22.486;2022-11-20T11:51:59;30.15;;;11.85;;
24030;SDS011;12240;51.142;22.486;2022-11-20T11:57:46;36.25;;;14.43;;
24030;SDS011;12240;51.142;22.486;2022-11-20T12:00:38;28.48;;;10.57;;
24030;SDS011;12240;51.142;22.486;2022-11-20T12:03:14;29.13;;;10.48;;
24030;SDS011;12240;51.142;22.486;2022-11-20T12:05:58;29.10;;;10.23;;
24030;SDS011;12240;51.142;22.486;2022-11-20T12:08:40;36.45;;;11.57;;
24030;SDS011;12240;51.142;22.486;2022-11-20T12:17:01;29.90;;;10.85;;
24030;SDS011;12240;51.142;22.486;2022-11-20T12:19:30;28.48;;;10.63;;
24030;SDS011;12240;51.142;22.486;2022-11-20T12:27:41;29.63;;;10.95;;
24030;SDS011;12240;51.142;22.486;2022-11-20T12:30:47;26.77;;;11.10;;
24030;SDS011;12240;51.142;22.486;2022-11-20T12:39:22;31.23;;;10.63;;
24030;SDS011;12240;51.142;22.486;2022-11-20T12:46:05;28.10;;;9.98;;
24030;SDS011;12240;51.142;22.486;2022-11-20T13:00:07;27.45;;;10.23;;
24030;SDS011;12240;51.142;22.486;2022-11-20T13:08:41;28.23;;;9.40;;
24030;SDS011;12240;51.142;22.486;2022-11-20T13:17:23;26.95;;;11.13;;
24030;SDS011;12240;51.142;22.486;2022-11-20T13:20:04;30.27;;;9.90;;
24030;SDS011;12240;51.142;22.486;2022-11-20T13:28:27;31.85;;;11.20;;
24030;SDS011;12240;51.142;22.486;2022-11-20T13:30:57;29.35;;;10.30;;
24030;SDS011;12240;51.142;22.486;2022-11-20T13:33:30;30.13;;;10.02;;
24030;SDS011;12240;51.142;22.486;2022-11-20T13:36:24;32.22;;;11.32;;
24030;SDS011;12240;51.142;22.486;2022-11-20T13:38:56;26.48;;;9.95;;
24030;SDS011;12240;51.142;22.486;2022-11-20T13:46:42;35.88;;;11.57;;
24030;SDS011;12240;51.142;22.486;2022-11-20T14:01:00;34.15;;;13.15;;
24030;SDS011;12240;51.142;22.486;2022-11-20T14:03:58;36.38;;;13.77;;
24030;SDS011;12240;51.142;22.486;2022-11-20T14:06:39;33.17;;;12.85;;
24030;SDS011;12240;51.142;22.486;2022-11-20T14:11:57;30.08;;;11.68;;
24030;SDS011;12240;51.142;22.486;2022-11-20T14:14:26;32.90;;;12.40;;
24030;SDS011;12240;51.142;22.486;2022-11-20T14:17:06;33.28;;;12.35;;
24030;SDS011;12240;51.142;22.486;2022-11-20T14:19:37;38.47;;;13.43;;
24030;SDS011;12240;51.142;22.486;2022-11-20T14:24:37;34.47;;;11.70;;
24030;SDS011;12240;51.142;22.486;2022-11-20T14:27:11;30.98;;;11.50;;
24030;SDS011;12240;51.142;22.486;2022-11-20T14:29:50;39.10;;;13.23;;
24030;SDS011;12240;51.142;22.486;2022-11-20T14:32:19;39.92;;;14.48;;
24030;SDS011;12240;51.142;22.486;2022-11-20T14:34:54;45.47;;;14.32;;
24030;SDS011;12240;51.142;22.486;2022-11-20T14:37:36;38.63;;;13.75;;
24030;SDS011;12240;51.142;22.486;2022-11-20T14:42:52;45.83;;;16.48;;
24030;SDS011;12240;51.142;22.486;2022-11-20T14:45:21;40.63;;;15.35;;
24030;SDS011;12240;51.142;22.486;2022-11-20T14:47:51;48.03;;;16.27;;
24030;SDS011;12240;51.142;22.486;2022-11-20T14:50:27;47.92;;;15.60;;
24030;SDS011;12240;51.142;22.486;2022-11-20T14:52:57;42.15;;;13.50;;
24030;SDS011;12240;51.142;22.486;2022-11-20T14:55:29;42.38;;;14.43;;
24030;SDS011;12240;51.142;22.486;2022-11-20T14:58:01;39.60;;;13.77;;
24030;SDS011;12240;51.142;22.486;2022-11-20T15:00:57;41.60;;;14.45;;
24030;SDS011;12240;51.142;22.486;2022-11-20T15:03:36;38.50;;;14.10;;
24030;SDS011;12240;51.142;22.486;2022-11-20T15:06:09;38.65;;;13.50;;
24030;SDS011;12240;51.142;22.486;2022-11-20T15:08:49;42.03;;;14.95;;
24030;SDS011;12240;51.142;22.486;2022-11-20T15:11:20;48.40;;;16.38;;
24030;SDS011;12240;51.142;22.486;2022-11-20T15:14:03;41.15;;;14.52;;
24030;SDS011;12240;51.142;22.486;2022-11-20T15:16:33;46.47;;;16.33;;
24030;SDS011;12240;51.142;22.486;2022-11-20T15:19:02;67.13;;;22.92;;
24030;SDS011;12240;51.142;22.486;2022-11-20T15:21:40;56.00;;;18.98;;
24030;SDS011;12240;51.142;22.486;2022-11-20T15:24:08;51.88;;;18.25;;
24030;SDS011;12240;51.142;22.486;2022-11-20T15:26:37;48.08;;;14.52;;
24030;SDS011;12240;51.142;22.486;2022-11-20T15:29:13;34.25;;;12.52;;
24030;SDS011;12240;51.142;22.486;2022-11-20T15:31:46;44.40;;;15.80;;
24030;SDS011;12240;51.142;22.486;2022-11-20T15:34:15;45.22;;;16.30;;
24030;SDS011;12240;51.142;22.486;2022-11-20T15:36:44;51.60;;;16.60;;
24030;SDS011;12240;51.142;22.486;2022-11-20T15:39:12;42.55;;;16.02;;
24030;SDS011;12240;51.142;22.486;2022-11-20T15:41:41;48.58;;;17.65;;
24030;SDS011;12240;51.142;22.486;2022-11-20T15:44:09;40.20;;;14.32;;
24030;SDS011;12240;51.142;22.486;2022-11-20T15:46:39;41.72;;;13.98;;
24030;SDS011;12240;51.142;22.486;2022-11-20T15:49:13;38.83;;;14.50;;
24030;SDS011;12240;51.142;22.486;2022-11-20T15:51:44;43.80;;;13.82;;
24030;SDS011;12240;51.142;22.486;2022-11-20T15:54:17;44.50;;;15.80;;
24030;SDS011;12240;51.142;22.486;2022-11-20T15:56:49;40.88;;;13.35;;
24030;SDS011;12240;51.142;22.486;2022-11-20T16:01:49;41.60;;;16.67;;
24030;SDS011;12240;51.142;22.486;2022-11-20T16:04:17;47.83;;;17.40;;
24030;SDS011;12240;51.142;22.486;2022-11-20T16:06:46;44.10;;;15.43;;
24030;SDS011;12240;51.142;22.486;2022-11-20T16:09:14;51.72;;;17.27;;
24030;SDS011;12240;51.142;22.486;2022-11-20T16:11:43;57.55;;;18.52;;
24030;SDS011;12240;51.142;22.486;2022-11-20T16:14:11;55.80;;;17.52;;
24030;SDS011;12240;51.142;22.486;2022-11-20T16:16:58;65.60;;;22.00;;
24030;SDS011;12240;51.142;22.486;2022-11-20T16:19:26;54.63;;;17.80;;
24030;SDS011;12240;51.142;22.486;2022-11-20T16:21:54;44.58;;;16.70;;
24030;SDS011;12240;51.142;22.486;2022-11-20T16:24:29;50.05;;;17.10;;
24030;SDS011;12240;51.142;22.486;2022-11-20T16:26:57;55.30;;;17.33;;
24030;SDS011;12240;51.142;22.486;2022-11-20T16:29:25;55.97;;;19.17;;
24030;SDS011;12240;51.142;22.486;2022-11-20T16:31:53;52.45;;;16.70;;
24030;SDS011;12240;51.142;22.486;2022-11-20T16:34:21;51.97;;;17.00;;
24030;SDS011;12240;51.142;22.486;2022-11-20T16:36:50;46.53;;;16.30;;
24030;SDS011;12240;51.142;22.486;2022-11-20T16:39:17;43.17;;;14.48;;
24030;SDS011;12240;51.142;22.486;2022-11-20T16:41:50;43.95;;;16.85;;
24030;SDS011;12240;51.142;22.486;2022-11-20T16:44:18;55.13;;;20.90;;
24030;SDS011;12240;51.142;22.486;2022-11-20T16:46:46;59.78;;;20.17;;
24030;SDS011;12240;51.142;22.486;2022-11-20T16:49:14;58.88;;;21.65;;
24030;SDS011;12240;51.142;22.486;2022-11-20T16:51:42;64.60;;;21.20;;
24030;SDS011;12240;51.142;22.486;2022-11-20T16:54:10;62.30;;;20.50;;